Time;durP1;ratioP1;P1;durP2;ratioP2;P2;SDS_P1;SDS_P2;PMS_P1;PMS_P2;Temp;Humidity;BMP_temperature;BMP_pressure;BME280_temperature;BME280_humidity;BME280_pressure;Samples;Min_cycle;Max_cycle;Signal;HPM_P1;HPM_P2
2021/04/24 00:00:38;;;;;;;5.37;4.43;;;13.30;36.20;;;;;;4993707;28;20675;-51
2021/04/24 00:03:07;;;;;;;8.53;4.57;;;13.20;36.30;;;;;;4994015;28;20993;-51
2021/04/24 00:05:36;;;;;;;6.37;4.40;;;13.20;36.10;;;;;;4994003;28;20706;-51
2021/04/24 00:08:04;;;;;;;6.00;4.47;;;13.20;36.20;;;;;;4989276;28;20695;-51
2021/04/24 00:10:32;;;;;;;5.93;4.00;;;13.10;36.00;;;;;;4993846;28;20657;-51
2021/04/24 00:12:59;;;;;;;7.73;4.90;;;13.10;35.70;;;;;;4995099;28;20633;-51
2021/04/24 00:15:27;;;;;;;7.40;4.40;;;13.00;35.70;;;;;;4979550;28;20630;-50
2021/04/24 00:17:53;;;;;;;6.30;4.80;;;13.00;35.70;;;;;;4979834;28;20621;-51
2021/04/24 00:20:21;;;;;;;4.30;3.90;;;13.00;35.60;;;;;;4993243;28;20676;-52
2021/04/24 00:22:48;;;;;;;9.80;4.40;;;13.00;35.70;;;;;;4993515;28;21221;-50
2021/04/24 00:25:16;;;;;;;6.03;4.20;;;12.90;35.80;;;;;;4993508;28;20636;-51
2021/04/24 00:27:42;;;;;;;5.30;4.20;;;12.90;36.10;;;;;;4993906;28;20691;-51
2021/04/24 00:30:10;;;;;;;7.77;4.80;;;12.90;36.30;;;;;;4993618;28;20684;-50
2021/04/24 00:32:38;;;;;;;6.20;5.40;;;12.90;36.40;;;;;;4993163;28;20633;-51
2021/04/24 00:35:06;;;;;;;6.17;5.27;;;12.90;36.50;;;;;;4992995;28;20637;-51
2021/04/24 00:37:33;;;;;;;7.70;4.30;;;12.80;36.40;;;;;;4992460;28;20651;-50
2021/04/24 00:40:00;;;;;;;6.20;4.20;;;12.70;36.50;;;;;;4993277;28;20715;-51
2021/04/24 00:42:26;;;;;;;5.30;3.70;;;12.70;36.60;;;;;;4992589;28;20691;-50
2021/04/24 00:44:54;;;;;;;8.80;4.83;;;12.70;36.70;;;;;;4982240;28;20712;-51
2021/04/24 00:47:21;;;;;;;10.77;4.47;;;12.70;36.80;;;;;;4975466;28;20661;-51
2021/04/24 00:49:49;;;;;;;4.73;3.60;;;12.60;36.80;;;;;;4992256;28;20661;-51
2021/04/24 00:52:16;;;;;;;6.33;4.50;;;12.60;36.90;;;;;;4992771;28;21067;-51
2021/04/24 00:54:43;;;;;;;5.13;4.73;;;12.60;36.90;;;;;;4975211;28;20633;-51
2021/04/24 00:57:10;;;;;;;7.17;5.63;;;12.60;37.00;;;;;;4992866;28;20683;-51
2021/04/24 00:59:37;;;;;;;6.53;4.93;;;12.60;37.10;;;;;;4992624;28;20657;-51
2021/04/24 01:02:04;;;;;;;8.10;4.83;;;12.60;37.20;;;;;;4992604;28;20628;-50
2021/04/24 01:04:30;;;;;;;5.43;4.63;;;12.60;37.50;;;;;;4992477;28;20637;-50
2021/04/24 01:06:58;;;;;;;7.60;5.70;;;12.60;37.80;;;;;;4992063;28;20653;-50
2021/04/24 01:09:25;;;;;;;6.83;5.67;;;12.50;38.00;;;;;;4991618;28;20668;-50
2021/04/24 01:11:52;;;;;;;6.17;5.37;;;12.50;38.00;;;;;;4992290;28;20632;-50
2021/04/24 01:14:19;;;;;;;7.30;5.30;;;12.50;37.90;;;;;;4993617;28;21042;-50
2021/04/24 01:16:45;;;;;;;9.30;5.80;;;12.40;38.00;;;;;;4991707;28;20617;-50
2021/04/24 01:19:12;;;;;;;8.43;5.00;;;12.40;38.10;;;;;;4991661;28;20726;-50
2021/04/24 01:21:39;;;;;;;8.13;5.73;;;12.40;38.20;;;;;;4992370;28;20624;-51
2021/04/24 01:24:08;;;;;;;9.00;5.47;;;12.30;38.20;;;;;;4992372;28;20644;-51
2021/04/24 01:26:35;;;;;;;6.93;5.90;;;12.30;38.40;;;;;;4992223;28;20657;-51
2021/04/24 01:29:02;;;;;;;11.70;5.33;;;12.20;38.40;;;;;;4991597;28;20684;-51
2021/04/24 01:31:28;;;;;;;7.30;5.80;;;12.20;38.50;;;;;;4992352;28;20628;-51
2021/04/24 01:33:55;;;;;;;12.33;6.57;;;12.20;38.70;;;;;;4991896;28;20664;-50
2021/04/24 01:36:22;;;;;;;9.10;5.30;;;12.20;39.00;;;;;;4992305;28;20675;-51
2021/04/24 01:38:48;;;;;;;5.00;4.50;;;12.10;39.80;;;;;;4991900;28;21348;-51
2021/04/24 01:41:16;;;;;;;9.67;6.50;;;12.10;39.80;;;;;;4991840;28;21026;-51
2021/04/24 01:43:43;;;;;;;5.53;4.93;;;12.10;39.90;;;;;;4990134;28;21188;-51
2021/04/24 01:46:09;;;;;;;8.10;4.90;;;12.00;39.90;;;;;;4972147;28;21222;-51
2021/04/24 01:48:36;;;;;;;5.93;5.37;;;12.00;40.30;;;;;;4977378;28;20715;-50
2021/04/24 01:51:03;;;;;;;5.30;4.80;;;12.00;40.50;;;;;;4992301;28;20694;-50
2021/04/24 01:53:30;;;;;;;10.90;6.00;;;12.00;40.70;;;;;;4992392;28;20625;-50
2021/04/24 01:55:56;;;;;;;9.00;5.70;;;12.00;40.60;;;;;;4991840;28;20621;-50
2021/04/24 01:58:24;;;;;;;6.73;6.00;;;12.00;40.70;;;;;;4991438;28;20691;-50
2021/04/24 02:00:52;;;;;;;10.60;5.10;;;12.00;40.80;;;;;;4992079;28;20695;-50
2021/04/24 02:03:19;;;;;;;6.50;5.40;;;12.00;40.90;;;;;;4991851;28;20621;-50
2021/04/24 02:05:47;;;;;;;7.93;5.80;;;12.00;41.80;;;;;;4991740;28;21025;-50
2021/04/24 02:08:15;;;;;;;7.43;5.20;;;12.10;41.50;;;;;;4991426;28;20653;-50
2021/04/24 02:10:43;;;;;;;7.50;5.83;;;12.10;41.60;;;;;;4991725;28;20629;-50
2021/04/24 02:13:11;;;;;;;8.27;6.07;;;12.10;41.20;;;;;;4991839;28;20628;-50
2021/04/24 02:15:39;;;;;;;7.13;5.87;;;12.10;41.20;;;;;;4974597;28;20689;-50
2021/04/24 02:18:06;;;;;;;10.67;6.10;;;12.00;41.50;;;;;;4972861;28;20978;-51
2021/04/24 02:20:33;;;;;;;7.10;5.57;;;12.00;41.80;;;;;;4975020;28;21032;-50
2021/04/24 02:23:00;;;;;;;7.60;6.17;;;12.00;41.90;;;;;;4978285;28;20710;-50
2021/04/24 02:25:26;;;;;;;8.93;5.33;;;12.00;41.70;;;;;;4995439;28;20682;-50
2021/04/24 02:27:53;;;;;;;6.77;5.87;;;12.00;41.20;;;;;;4995160;28;20750;-49
2021/04/24 02:30:21;;;;;;;10.50;6.97;;;11.90;41.40;;;;;;4995711;28;20660;-49
2021/04/24 02:32:48;;;;;;;11.07;6.67;;;11.80;41.10;;;;;;4995053;28;21255;-49
2021/04/24 02:35:17;;;;;;;7.10;5.83;;;11.70;41.30;;;;;;4995826;28;20636;-50
2021/04/24 02:37:44;;;;;;;10.80;6.30;;;11.60;41.40;;;;;;4995127;28;20629;-50
2021/04/24 02:40:13;;;;;;;11.23;5.23;;;11.60;41.50;;;;;;4994905;28;20708;-50
2021/04/24 02:42:40;;;;;;;12.30;6.17;;;11.60;41.60;;;;;;4995292;28;20636;-49
2021/04/24 02:45:08;;;;;;;6.87;6.10;;;11.50;41.50;;;;;;4982819;28;20629;-50
2021/04/24 02:47:35;;;;;;;10.93;6.63;;;11.50;41.80;;;;;;4989922;28;20702;-50
2021/04/24 02:50:04;;;;;;;9.17;6.17;;;11.50;41.80;;;;;;4994908;28;20656;-50
2021/04/24 02:52:30;;;;;;;11.37;8.13;;;11.50;41.80;;;;;;4995050;28;20633;-50
2021/04/24 02:54:57;;;;;;;10.53;7.00;;;11.40;41.70;;;;;;4994638;28;20633;-50
2021/04/24 02:57:24;;;;;;;8.63;7.40;;;11.40;41.80;;;;;;4977307;28;20678;-50
2021/04/24 02:59:51;;;;;;;10.30;8.73;;;11.30;42.00;;;;;;4994932;28;20664;-50
2021/04/24 03:02:17;;;;;;;9.87;7.30;;;11.30;42.10;;;;;;4994557;28;20728;-51
2021/04/24 03:04:44;;;;;;;11.10;7.87;;;11.30;42.10;;;;;;4994814;28;20667;-50
2021/04/24 03:07:12;;;;;;;8.80;7.00;;;11.20;42.20;;;;;;4994618;28;20664;-50
2021/04/24 03:09:39;;;;;;;15.60;7.77;;;11.10;42.30;;;;;;4994452;28;20664;-50
2021/04/24 03:12:06;;;;;;;10.20;7.80;;;11.10;42.60;;;;;;4994956;28;20684;-51
2021/04/24 03:14:33;;;;;;;11.23;7.67;;;11.10;42.80;;;;;;4977867;28;20632;-50
2021/04/24 03:17:00;;;;;;;14.60;7.63;;;11.10;42.80;;;;;;4994749;28;20667;-51
2021/04/24 03:19:27;;;;;;;8.10;6.93;;;11.10;43.00;;;;;;4994076;28;21033;-51
2021/04/24 03:21:54;;;;;;;11.60;8.17;;;11.00;42.80;;;;;;4994920;28;20647;-52
2021/04/24 03:24:21;;;;;;;9.57;7.17;;;11.00;43.10;;;;;;4993791;28;20641;-52
2021/04/24 03:26:48;;;;;;;9.23;7.50;;;11.00;43.10;;;;;;4994445;28;20668;-52
2021/04/24 03:29:15;;;;;;;9.67;7.43;;;10.90;43.10;;;;;;4993778;28;20656;-52
2021/04/24 03:31:41;;;;;;;8.40;7.23;;;10.90;43.20;;;;;;4994557;28;20633;-52
2021/04/24 03:34:08;;;;;;;9.20;7.10;;;10.90;43.40;;;;;;4993464;28;20679;-52
2021/04/24 03:36:35;;;;;;;8.50;7.27;;;10.90;43.60;;;;;;4994130;28;20955;-52
2021/04/24 03:39:02;;;;;;;8.97;7.67;;;10.80;43.40;;;;;;4993577;28;20694;-51
2021/04/24 03:41:29;;;;;;;9.70;8.70;;;10.80;43.50;;;;;;4976250;28;21229;-51
2021/04/24 03:43:56;;;;;;;13.93;8.47;;;10.80;43.70;;;;;;4988309;28;20628;-51
2021/04/24 03:46:23;;;;;;;10.37;8.23;;;10.80;43.80;;;;;;4974297;28;20641;-51
2021/04/24 03:48:50;;;;;;;11.03;7.87;;;10.80;44.20;;;;;;4973554;28;20728;-51
2021/04/24 03:51:16;;;;;;;16.40;8.07;;;10.70;44.00;;;;;;4975306;28;20695;-51
2021/04/24 03:53:43;;;;;;;9.20;7.73;;;10.70;44.20;;;;;;4994130;28;20656;-51
2021/04/24 03:56:10;;;;;;;10.60;9.00;;;10.70;44.10;;;;;;4994166;28;20624;-51
2021/04/24 03:58:37;;;;;;;8.53;7.60;;;10.60;44.20;;;;;;4993680;28;20653;-50
2021/04/24 04:01:04;;;;;;;9.93;8.07;;;10.60;44.40;;;;;;4993689;28;20679;-51
2021/04/24 04:03:31;;;;;;;10.60;9.50;;;10.60;44.70;;;;;;4994551;28;20984;-50
2021/04/24 04:05:58;;;;;;;15.10;8.77;;;10.60;44.70;;;;;;4994778;28;20663;-51
2021/04/24 04:08:24;;;;;;;10.17;8.10;;;10.70;44.70;;;;;;4993996;28;20683;-51
2021/04/24 04:10:51;;;;;;;11.00;9.30;;;10.70;44.50;;;;;;4994013;28;21174;-51
2021/04/24 04:13:18;;;;;;;13.53;8.90;;;10.70;44.40;;;;;;4994093;28;20652;-52
2021/04/24 04:15:45;;;;;;;10.20;8.40;;;10.70;44.50;;;;;;4975956;28;21439;-51
2021/04/24 04:18:13;;;;;;;13.80;8.57;;;10.60;44.50;;;;;;4973754;28;20676;-51
2021/04/24 04:20:40;;;;;;;9.63;7.77;;;10.70;44.60;;;;;;4974689;28;21171;-51
2021/04/24 04:23:07;;;;;;;10.90;9.33;;;10.60;44.60;;;;;;4991451;28;20736;-53
2021/04/24 04:25:34;;;;;;;9.33;8.03;;;10.60;44.70;;;;;;4993313;28;20628;-52
2021/04/24 04:28:01;;;;;;;9.77;8.10;;;10.60;44.70;;;;;;4993239;28;20712;-52
2021/04/24 04:30:27;;;;;;;8.83;7.90;;;10.60;44.90;;;;;;4993602;28;21003;-52
2021/04/24 04:32:55;;;;;;;11.93;10.60;;;10.60;44.90;;;;;;4993309;28;20715;-52
2021/04/24 04:35:22;;;;;;;13.00;9.27;;;10.50;44.90;;;;;;4993444;28;20627;-52
2021/04/24 04:37:49;;;;;;;9.80;8.77;;;10.50;45.00;;;;;;4992046;28;21044;-52
2021/04/24 04:40:16;;;;;;;10.77;9.30;;;10.50;45.00;;;;;;4993053;28;20659;-51
2021/04/24 04:42:43;;;;;;;13.47;9.03;;;10.50;45.20;;;;;;4992009;28;20637;-51
2021/04/24 04:45:10;;;;;;;14.47;9.00;;;10.50;45.20;;;;;;4975061;28;20679;-51
2021/04/24 04:47:37;;;;;;;11.37;9.07;;;10.40;45.20;;;;;;4992581;28;20722;-52
2021/04/24 04:50:05;;;;;;;10.57;9.10;;;10.40;45.30;;;;;;4992725;28;20656;-51
2021/04/24 04:52:32;;;;;;;9.60;8.10;;;10.40;45.40;;;;;;4992495;28;20705;-51
2021/04/24 04:54:59;;;;;;;13.07;10.53;;;10.40;45.40;;;;;;4992950;28;20636;-51
2021/04/24 04:57:25;;;;;;;13.33;9.47;;;10.50;45.60;;;;;;4992322;28;20633;-51
2021/04/24 04:59:52;;;;;;;12.77;10.03;;;10.40;45.50;;;;;;4992136;28;20661;-51
2021/04/24 05:02:19;;;;;;;11.73;9.73;;;10.40;45.70;;;;;;4992776;28;20664;-51
2021/04/24 05:04:45;;;;;;;12.03;9.30;;;10.30;45.80;;;;;;4993014;28;20683;-51
2021/04/24 05:07:13;;;;;;;11.67;8.83;;;10.30;45.80;;;;;;4990133;28;20657;-51
2021/04/24 05:09:40;;;;;;;13.80;10.67;;;10.40;46.00;;;;;;4989712;28;20718;-52
2021/04/24 05:12:07;;;;;;;13.33;10.20;;;10.30;45.90;;;;;;4992464;28;20632;-51
2021/04/24 05:14:34;;;;;;;14.00;9.17;;;10.20;45.90;;;;;;4985969;28;21027;-51
2021/04/24 05:17:01;;;;;;;14.33;10.20;;;10.20;46.30;;;;;;4992959;28;21469;-51
2021/04/24 05:19:27;;;;;;;15.87;10.87;;;10.20;46.30;;;;;;4991914;28;20722;-51
2021/04/24 05:21:54;;;;;;;13.73;9.93;;;10.10;46.40;;;;;;4992521;28;20697;-51
2021/04/24 05:24:23;;;;;;;11.17;9.77;;;10.10;46.60;;;;;;4991825;28;20698;-52
2021/04/24 05:26:49;;;;;;;13.23;9.43;;;10.10;46.90;;;;;;4992200;28;20633;-51
2021/04/24 05:29:16;;;;;;;12.03;9.70;;;10.10;47.10;;;;;;4992235;28;20706;-51
2021/04/24 05:31:43;;;;;;;27.40;12.90;;;10.20;47.10;;;;;;4992025;28;21028;-51
2021/04/24 05:34:10;;;;;;;11.70;10.20;;;10.20;47.00;;;;;;4992344;28;21240;-51
2021/04/24 05:36:37;;;;;;;12.90;10.37;;;10.20;47.00;;;;;;4992175;28;20683;-51
2021/04/24 05:39:04;;;;;;;13.70;10.37;;;10.20;46.90;;;;;;4991764;28;20714;-51
2021/04/24 05:41:32;;;;;;;13.07;10.50;;;10.30;47.10;;;;;;4991716;28;21046;-51
2021/04/24 05:43:59;;;;;;;18.13;9.83;;;10.30;47.20;;;;;;4987743;28;20680;-50
2021/04/24 05:46:26;;;;;;;11.00;9.80;;;10.40;47.00;;;;;;4972570;28;21064;-51
2021/04/24 05:48:53;;;;;;;10.73;9.27;;;10.40;47.00;;;;;;4988841;28;21273;-51
2021/04/24 05:51:20;;;;;;;12.13;10.70;;;10.40;46.90;;;;;;4992479;28;20656;-51
2021/04/24 05:53:47;;;;;;;13.20;9.20;;;10.40;47.10;;;;;;4992203;28;20683;-51
2021/04/24 05:56:14;;;;;;;15.70;11.27;;;10.40;47.20;;;;;;4992717;28;20660;-51
2021/04/24 05:58:41;;;;;;;15.17;11.90;;;10.40;47.30;;;;;;4991556;28;21283;-51
2021/04/24 06:01:08;;;;;;;14.30;10.90;;;10.60;47.30;;;;;;4991767;28;21166;-51
2021/04/24 06:03:35;;;;;;;17.00;10.20;;;10.60;47.20;;;;;;4991550;28;20760;-51
2021/04/24 06:06:02;;;;;;;16.50;10.90;;;10.60;47.30;;;;;;4972809;28;20614;-51
2021/04/24 06:08:29;;;;;;;13.40;9.73;;;10.70;47.30;;;;;;4983997;28;20719;-51
2021/04/24 06:10:56;;;;;;;13.60;10.50;;;10.70;47.10;;;;;;4991713;28;21097;-52
2021/04/24 06:13:23;;;;;;;14.57;11.73;;;10.80;47.00;;;;;;4991714;28;20635;-49
2021/04/24 06:15:51;;;;;;;14.77;11.53;;;10.90;47.00;;;;;;4957831;28;20637;-52
2021/04/24 06:18:17;;;;;;;11.50;10.17;;;10.90;46.80;;;;;;4991440;28;20667;-52
2021/04/24 06:20:44;;;;;;;13.10;11.50;;;11.00;46.80;;;;;;4991739;28;20744;-49
2021/04/24 06:23:11;;;;;;;12.53;10.13;;;11.00;46.60;;;;;;4991683;28;20624;-49
2021/04/24 06:25:38;;;;;;;14.53;9.97;;;11.10;46.60;;;;;;4991771;28;20688;-49
2021/04/24 06:28:05;;;;;;;13.20;9.73;;;11.20;46.50;;;;;;4991457;28;20657;-49
2021/04/24 06:30:31;;;;;;;16.10;11.37;;;11.20;46.40;;;;;;4991935;28;20668;-51
2021/04/24 06:32:59;;;;;;;16.10;10.20;;;11.40;46.40;;;;;;4991136;28;20719;-52
2021/04/24 06:35:26;;;;;;;14.93;10.93;;;11.50;46.30;;;;;;4991634;28;20648;-50
2021/04/24 06:37:55;;;;;;;11.80;10.23;;;11.70;46.00;;;;;;4991089;28;20984;-51
2021/04/24 06:40:22;;;;;;;16.47;10.77;;;11.90;45.70;;;;;;4991590;28;20666;-51
2021/04/24 06:42:49;;;;;;;17.03;10.53;;;12.00;45.20;;;;;;4991368;28;20626;-50
2021/04/24 06:45:16;;;;;;;13.43;11.63;;;12.20;45.00;;;;;;4978004;28;20990;-51
2021/04/24 06:47:43;;;;;;;14.33;9.97;;;12.30;45.30;;;;;;4991757;28;20749;-50
2021/04/24 06:50:12;;;;;;;12.77;10.13;;;12.50;44.60;;;;;;4991127;28;20730;-51
2021/04/24 06:52:39;;;;;;;14.53;11.00;;;12.60;44.20;;;;;;4991514;28;21193;-51
2021/04/24 06:55:06;;;;;;;12.30;10.20;;;12.80;44.10;;;;;;4991924;28;20690;-51
2021/04/24 06:57:33;;;;;;;11.40;10.33;;;12.90;44.00;;;;;;4991307;28;20689;-51
2021/04/24 07:00:00;;;;;;;13.67;10.80;;;13.10;43.60;;;;;;4991448;28;20680;-51
2021/04/24 07:02:27;;;;;;;12.73;11.40;;;13.20;43.40;;;;;;4991101;28;20679;-51
2021/04/24 07:04:54;;;;;;;12.60;9.60;;;13.30;42.80;;;;;;4991219;28;20702;-51
2021/04/24 07:07:21;;;;;;;15.00;9.97;;;13.60;42.90;;;;;;4990362;28;20936;-51
2021/04/24 07:09:48;;;;;;;17.03;12.07;;;13.70;42.50;;;;;;4998423;28;20655;-51
2021/04/24 07:12:15;;;;;;;14.77;10.23;;;13.80;42.20;;;;;;5015090;28;20627;-51
2021/04/24 07:14:41;;;;;;;12.53;11.20;;;14.00;42.10;;;;;;4986154;28;20644;-51
2021/04/24 07:17:08;;;;;;;13.13;10.67;;;14.20;41.90;;;;;;4976338;28;20633;-51
2021/04/24 07:19:35;;;;;;;14.47;11.33;;;14.30;41.20;;;;;;4994558;28;20663;-51
2021/04/24 07:22:03;;;;;;;14.17;10.83;;;14.40;41.00;;;;;;4994019;28;20632;-51
2021/04/24 07:24:31;;;;;;;12.60;10.83;;;14.60;40.70;;;;;;4997513;28;20648;-52
2021/04/24 07:26:58;;;;;;;10.50;9.40;;;14.80;40.30;;;;;;5001855;28;20671;-52
2021/04/24 07:29:24;;;;;;;15.40;12.10;;;14.90;40.10;;;;;;5013777;28;20676;-52
2021/04/24 07:31:51;;;;;;;12.57;10.90;;;15.00;39.70;;;;;;5006483;28;20724;-51
2021/04/24 07:34:18;;;;;;;11.00;9.77;;;15.20;39.40;;;;;;4994728;28;20667;-52
2021/04/24 07:36:45;;;;;;;11.87;9.80;;;15.30;39.10;;;;;;4994454;28;20632;-52
2021/04/24 07:39:11;;;;;;;11.07;9.97;;;15.40;38.90;;;;;;4994035;28;20653;-52
2021/04/24 07:41:39;;;;;;;11.67;9.17;;;15.50;38.70;;;;;;5010223;28;20627;-51
2021/04/24 07:44:06;;;;;;;13.10;10.43;;;15.70;38.70;;;;;;5008322;28;20654;-52
2021/04/24 07:46:33;;;;;;;13.43;10.73;;;15.90;38.40;;;;;;5001959;28;21193;-52
2021/04/24 07:49:00;;;;;;;12.13;9.70;;;16.10;38.30;;;;;;4993517;28;21094;-52
2021/04/24 07:51:26;;;;;;;11.50;9.73;;;16.20;37.80;;;;;;4993877;28;20625;-52
2021/04/24 07:53:53;;;;;;;10.87;9.43;;;16.40;37.80;;;;;;4994196;28;20628;-52
2021/04/24 07:56:20;;;;;;;13.20;10.30;;;16.50;37.40;;;;;;4994342;28;20679;-52
2021/04/24 07:58:49;;;;;;;10.50;9.37;;;16.60;37.20;;;;;;4997037;28;20687;-52
2021/04/24 08:01:15;;;;;;;14.70;10.23;;;16.80;37.20;;;;;;4993938;28;20621;-52
2021/04/24 08:03:42;;;;;;;10.80;9.57;;;16.90;37.30;;;;;;4994071;28;20955;-52
2021/04/24 08:06:09;;;;;;;10.87;8.87;;;17.10;36.50;;;;;;4993630;28;21236;-52
2021/04/24 08:08:36;;;;;;;11.40;9.73;;;17.20;36.50;;;;;;4993209;28;20673;-53
2021/04/24 08:11:02;;;;;;;12.17;9.90;;;17.40;36.60;;;;;;4993797;28;20633;-51
2021/04/24 08:13:29;;;;;;;11.30;10.20;;;17.60;36.00;;;;;;4994259;28;21248;-52
2021/04/24 08:15:57;;;;;;;10.47;9.37;;;17.70;35.70;;;;;;4974898;28;21188;-51
2021/04/24 08:18:24;;;;;;;9.87;8.87;;;17.90;35.70;;;;;;4967738;28;20670;-51
2021/04/24 08:20:51;;;;;;;11.73;9.90;;;18.10;35.90;;;;;;5012828;28;20662;-51
2021/04/24 08:23:18;;;;;;;11.80;10.67;;;18.20;34.80;;;;;;5012123;28;21018;-51
2021/04/24 08:25:45;;;;;;;11.30;9.17;;;18.30;34.60;;;;;;4991789;28;20972;-51
2021/04/24 08:28:11;;;;;;;11.73;9.30;;;18.40;34.50;;;;;;4992504;28;20711;-51
2021/04/24 08:30:38;;;;;;;12.30;10.10;;;18.40;34.50;;;;;;4992938;28;20632;-51
2021/04/24 08:33:08;;;;;;;11.40;8.80;;;18.40;34.40;;;;;;4993304;28;20705;-50
2021/04/24 08:35:35;;;;;;;12.83;8.90;;;18.40;34.20;;;;;;5006209;28;20671;-51
2021/04/24 08:38:02;;;;;;;8.30;7.47;;;18.50;34.20;;;;;;5010061;28;21018;-51
2021/04/24 08:40:29;;;;;;;15.57;9.80;;;18.50;34.00;;;;;;5003355;28;20632;-51
2021/04/24 08:42:55;;;;;;;8.93;7.40;;;18.50;33.70;;;;;;4997980;28;20624;-51
2021/04/24 08:45:24;;;;;;;12.20;8.77;;;18.50;33.90;;;;;;5000136;28;21245;-51
2021/04/24 08:47:51;;;;;;;10.07;8.80;;;18.40;33.90;;;;;;4983948;28;20657;-51
2021/04/24 08:50:20;;;;;;;12.30;10.20;;;18.40;33.90;;;;;;4976742;28;20733;-51
2021/04/24 08:52:47;;;;;;;10.80;7.77;;;18.40;34.00;;;;;;4992140;28;21046;-50
2021/04/24 08:55:18;;;;;;;9.17;8.27;;;18.60;33.60;;;;;;4993690;28;20646;-50
2021/04/24 08:57:45;;;;;;;10.70;8.30;;;18.70;33.80;;;;;;5002971;28;20688;-50
2021/04/24 09:00:13;;;;;;;9.50;8.50;;;18.90;33.50;;;;;;4992405;28;20680;-50
2021/04/24 09:02:41;;;;;;;13.40;8.97;;;19.20;33.30;;;;;;4992537;28;20655;-51
2021/04/24 09:05:10;;;;;;;12.67;9.20;;;19.30;33.20;;;;;;4992128;28;20624;-50
2021/04/24 09:07:38;;;;;;;8.83;7.77;;;19.40;32.80;;;;;;4992323;28;20684;-51
2021/04/24 09:10:05;;;;;;;9.13;7.73;;;19.50;32.60;;;;;;4991897;28;20699;-51
2021/04/24 09:12:36;;;;;;;10.07;8.87;;;19.50;32.10;;;;;;4992271;28;20632;-50
2021/04/24 09:15:13;;;;;;;10.70;9.60;;;19.40;32.10;;;;;;4995209;28;20613;-51
2021/04/24 09:17:48;;;;;;;10.00;8.03;;;19.40;32.50;;;;;;4955350;28;20617;-51
2021/04/24 09:20:15;;;;;;;9.33;8.30;;;19.30;32.80;;;;;;4972586;28;20711;-51
2021/04/24 09:22:55;;;;;;;8.70;7.83;;;19.30;32.60;;;;;;4972360;28;20688;-51
2021/04/24 09:25:29;;;;;;;9.43;7.93;;;19.30;32.50;;;;;;4987826;28;20679;-51
2021/04/24 09:27:56;;;;;;;10.80;9.70;;;19.30;32.50;;;;;;4988571;28;20715;-51
2021/04/24 09:30:28;;;;;;;9.50;8.60;;;19.20;32.40;;;;;;4992648;28;20652;-50
2021/04/24 09:32:55;;;;;;;10.83;8.70;;;19.20;32.70;;;;;;5001402;28;20641;-51
2021/04/24 09:35:22;;;;;;;11.30;8.90;;;19.10;32.30;;;;;;4992048;28;20768;-51
2021/04/24 09:37:57;;;;;;;9.20;7.90;;;19.10;31.90;;;;;;4992182;28;20625;-52
2021/04/24 09:40:24;;;;;;;12.67;9.90;;;19.20;32.00;;;;;;4971706;28;20657;-50
2021/04/24 09:42:56;;;;;;;10.60;8.97;;;19.30;32.10;;;;;;4972130;28;20705;-52
2021/04/24 09:45:28;;;;;;;11.00;8.97;;;19.60;32.30;;;;;;4980465;28;21201;-52
2021/04/24 09:47:55;;;;;;;10.53;9.07;;;20.10;31.80;;;;;;4989545;28;20719;-52
2021/04/24 09:50:23;;;;;;;10.60;8.10;;;20.50;30.90;;;;;;4989739;28;20676;-52
2021/04/24 09:52:49;;;;;;;9.43;8.37;;;20.80;30.30;;;;;;4992228;28;21204;-52
2021/04/24 09:55:35;;;;;;;11.07;8.03;;;21.20;30.00;;;;;;4998027;28;20621;-51
2021/04/24 09:58:02;;;;;;;9.80;8.90;;;21.40;29.60;;;;;;4991114;28;20691;-51
2021/04/24 10:00:29;;;;;;;8.80;8.00;;;21.60;29.50;;;;;;5010298;28;21049;-52
2021/04/24 10:02:56;;;;;;;10.13;8.97;;;21.90;29.20;;;;;;4997612;28;20678;-52
2021/04/24 10:05:24;;;;;;;10.03;9.00;;;22.00;28.70;;;;;;4991330;28;21105;-51
2021/04/24 10:07:51;;;;;;;11.13;8.17;;;22.10;28.40;;;;;;4991022;28;20629;-52
2021/04/24 10:10:26;;;;;;;9.87;8.73;;;22.30;28.60;;;;;;4990374;28;21019;-51
2021/04/24 10:12:54;;;;;;;13.10;9.70;;;22.30;28.60;;;;;;4977576;28;21066;-51
2021/04/24 10:15:34;;;;;;;8.97;8.13;;;22.30;28.50;;;;;;4999775;28;20632;-50
2021/04/24 10:18:00;;;;;;;12.30;9.90;;;22.40;28.50;;;;;;4990800;28;20632;-51
2021/04/24 10:20:27;;;;;;;10.33;9.23;;;22.30;28.50;;;;;;5003440;28;20620;-51
2021/04/24 10:22:55;;;;;;;10.57;9.47;;;22.20;28.50;;;;;;5011259;28;21045;-51
2021/04/24 10:25:23;;;;;;;12.60;11.40;;;22.30;28.70;;;;;;4996223;28;20664;-52
2021/04/24 10:27:50;;;;;;;10.80;9.70;;;22.50;28.80;;;;;;4990529;28;21247;-52
2021/04/24 10:30:18;;;;;;;10.07;8.10;;;22.80;28.50;;;;;;4991067;28;20653;-53
2021/04/24 10:32:45;;;;;;;9.90;9.00;;;23.20;28.00;;;;;;4990932;28;20679;-52
2021/04/24 10:35:14;;;;;;;14.20;9.10;;;23.50;27.50;;;;;;4990926;28;21031;-52
2021/04/24 10:37:41;;;;;;;12.47;8.53;;;23.60;27.50;;;;;;4972253;28;20704;-52
2021/04/24 10:40:10;;;;;;;9.73;8.73;;;23.50;27.10;;;;;;4971733;28;20709;-52
2021/04/24 10:42:37;;;;;;;11.97;8.93;;;23.00;27.20;;;;;;4982939;28;21222;-52
2021/04/24 10:45:06;;;;;;;12.00;10.20;;;22.70;27.40;;;;;;4988214;28;20788;-51
2021/04/24 10:47:44;;;;;;;10.60;8.23;;;22.40;27.40;;;;;;4982717;28;21055;-52
2021/04/24 10:50:12;;;;;;;10.27;9.27;;;22.20;27.70;;;;;;4994728;28;21311;-51
2021/04/24 10:52:39;;;;;;;10.17;9.17;;;22.10;27.70;;;;;;4991751;28;21052;-52
2021/04/24 10:55:23;;;;;;;11.67;8.97;;;22.00;27.70;;;;;;4975621;28;20621;-52
2021/04/24 10:57:51;;;;;;;9.97;8.27;;;22.00;28.00;;;;;;4975798;28;20629;-52
2021/04/24 11:00:20;;;;;;;10.70;9.10;;;22.10;28.20;;;;;;4994318;28;20825;-53
2021/04/24 11:02:47;;;;;;;12.83;9.10;;;22.10;28.30;;;;;;4995522;28;20632;-52
2021/04/24 11:05:32;;;;;;;10.70;8.67;;;21.90;28.20;;;;;;4996772;28;21228;-52
2021/04/24 11:08:24;;;;;;;9.10;8.30;;;21.80;28.10;;;;;;4995364;28;20636;-52
2021/04/24 11:11:02;;;;;;;9.33;7.63;;;22.40;28.00;;;;;;4982996;28;21179;-52
2021/04/24 11:13:35;;;;;;;9.70;8.77;;;23.20;27.60;;;;;;4991971;28;20690;-54
2021/04/24 11:16:02;;;;;;;8.53;7.60;;;24.00;26.90;;;;;;4994472;28;21212;-53
2021/04/24 11:18:30;;;;;;;9.87;8.87;;;24.70;26.40;;;;;;4995357;28;20668;-52
2021/04/24 11:20:58;;;;;;;9.70;8.70;;;24.90;26.00;;;;;;4995246;28;20633;-52
2021/04/24 11:23:53;;;;;;;9.20;8.40;;;25.10;25.50;;;;;;4978728;28;20636;-52
2021/04/24 11:26:22;;;;;;;12.60;9.87;;;25.30;25.40;;;;;;4993931;28;21184;-52
2021/04/24 11:29:00;;;;;;;10.07;8.30;;;25.50;25.10;;;;;;4976777;28;20997;-52
2021/04/24 11:31:58;;;;;;;10.40;8.97;;;25.60;24.70;;;;;;5002989;28;20679;-52
2021/04/24 11:34:33;;;;;;;12.10;9.80;;;25.80;24.80;;;;;;4966856;28;20900;-52
2021/04/24 11:37:28;;;;;;;9.27;8.40;;;25.90;24.60;;;;;;5006079;28;20623;-52
2021/04/24 11:40:23;;;;;;;11.37;8.43;;;26.30;24.10;;;;;;4993770;28;20846;-52
2021/04/24 11:43:11;;;;;;;10.90;8.80;;;26.50;23.80;;;;;;4996194;28;20643;-52
2021/04/24 11:46:01;;;;;;;11.10;8.60;;;26.30;23.60;;;;;;4993171;28;21029;-53
2021/04/24 11:49:02;;;;;;;10.70;9.40;;;25.70;23.70;;;;;;4993336;28;20660;-52
2021/04/24 11:51:35;;;;;;;12.20;7.50;;;25.40;23.80;;;;;;4993769;28;20633;-52
2021/04/24 11:54:02;;;;;;;10.80;9.03;;;25.30;24.20;;;;;;4999784;28;20650;-52
2021/04/24 11:56:29;;;;;;;9.73;8.73;;;25.10;23.80;;;;;;5012050;28;20624;-52
2021/04/24 11:58:55;;;;;;;8.87;7.97;;;25.00;23.90;;;;;;4995035;28;20698;-52
2021/04/24 12:01:24;;;;;;;13.37;10.20;;;25.10;23.80;;;;;;4995865;28;20692;-53
2021/04/24 12:03:50;;;;;;;9.37;8.07;;;25.30;23.70;;;;;;4974021;28;20687;-52
2021/04/24 12:06:35;;;;;;;9.27;8.30;;;25.50;23.30;;;;;;4978061;28;20997;-53
2021/04/24 12:09:03;;;;;;;10.17;7.83;;;25.60;23.00;;;;;;4993395;28;20657;-53
2021/04/24 12:11:30;;;;;;;9.13;7.53;;;25.60;22.90;;;;;;4993177;28;20645;-51
2021/04/24 12:13:57;;;;;;;8.30;7.40;;;25.50;22.50;;;;;;5007868;28;20697;-52
2021/04/24 12:16:41;;;;;;;9.33;8.17;;;25.30;23.00;;;;;;4996924;28;21181;-52
2021/04/24 12:19:37;;;;;;;9.47;8.20;;;25.10;22.80;;;;;;4975987;28;21245;-52
2021/04/24 12:22:10;;;;;;;8.03;7.33;;;25.10;22.40;;;;;;4979822;28;20628;-53
2021/04/24 12:24:54;;;;;;;10.80;8.10;;;25.50;22.50;;;;;;4991636;28;20656;-52
2021/04/24 12:27:28;;;;;;;8.73;8.00;;;25.90;22.20;;;;;;4993041;28;21190;-52
2021/04/24 12:29:57;;;;;;;12.07;8.77;;;26.10;22.40;;;;;;4993082;28;20668;-52
2021/04/24 12:32:26;;;;;;;10.40;8.93;;;26.30;22.40;;;;;;4993119;28;20680;-52
2021/04/24 12:34:54;;;;;;;10.57;9.57;;;26.30;21.90;;;;;;4992919;28;21220;-52
2021/04/24 12:37:21;;;;;;;9.07;8.13;;;26.10;21.90;;;;;;4989959;28;20632;-52
2021/04/24 12:40:01;;;;;;;9.40;8.40;;;25.80;21.90;;;;;;4979262;28;20649;-52
2021/04/24 12:42:29;;;;;;;10.27;9.27;;;25.80;22.20;;;;;;4982340;28;20663;-52
2021/04/24 12:44:56;;;;;;;12.10;8.07;;;26.00;22.40;;;;;;4991745;28;20633;-52